createdAt,value
2017-11-16T00:00:34.876Z,9.5
2017-11-16T00:01:36.480Z,9.6
2017-11-16T00:02:38.090Z,9.6
2017-11-16T00:03:39.691Z,9.7
2017-11-16T00:04:41.302Z,9.5
2017-11-16T00:05:42.906Z,9.5
2017-11-16T00:06:44.513Z,9.6
2017-11-16T00:07:46.124Z,9.7
2017-11-16T00:08:47.725Z,9.6
2017-11-16T00:09:49.337Z,9.6
2017-11-16T00:10:50.938Z,9.6
2017-11-16T00:11:52.552Z,9.6
2017-11-16T00:12:54.155Z,9.6
2017-11-16T00:13:55.769Z,9.6
2017-11-16T00:14:57.373Z,9.5
2017-11-16T00:15:58.984Z,9.5
2017-11-16T00:17:00.585Z,9.5
2017-11-16T00:18:02.198Z,9.5
2017-11-16T00:19:03.806Z,9.5
2017-11-16T00:20:05.412Z,9.5
2017-11-16T00:21:07.038Z,9.5
2017-11-16T00:22:08.644Z,9.6
2017-11-16T00:23:10.249Z,9.5
2017-11-16T00:24:11.856Z,9.5
2017-11-16T00:25:13.464Z,9.5
2017-11-16T00:26:15.070Z,9.5
2017-11-16T00:27:16.693Z,9.6
2017-11-16T00:28:18.298Z,9.5
2017-11-16T00:29:19.913Z,9.5
2017-11-16T00:30:21.516Z,9.5
2017-11-16T00:31:23.131Z,9.6
2017-11-16T00:32:24.730Z,9.5
2017-11-16T00:33:26.345Z,9.5
2017-11-16T00:34:27.947Z,9.5
2017-11-16T00:35:29.553Z,9.5
2017-11-16T00:36:31.167Z,9.5
2017-11-16T00:37:32.773Z,9.5
2017-11-16T00:38:34.376Z,9.6
2017-11-16T00:39:35.988Z,9.5
2017-11-16T00:40:37.592Z,9.6
2017-11-16T00:41:39.198Z,9.5
2017-11-16T00:42:40.811Z,9.5
2017-11-16T00:43:42.415Z,9.5
2017-11-16T00:44:44.030Z,9.5
2017-11-16T00:45:45.632Z,9.5
2017-11-16T00:46:47.235Z,9.5
2017-11-16T00:47:48.839Z,9.5
2017-11-16T00:48:50.453Z,9.5
2017-11-16T00:49:52.073Z,9.5
2017-11-16T00:50:53.670Z,9.5
2017-11-16T00:51:55.281Z,9.5
2017-11-16T00:52:56.881Z,9.4
2017-11-16T00:53:58.493Z,9.5
2017-11-16T00:55:00.097Z,9.4
2017-11-16T00:56:01.702Z,9.6
2017-11-16T00:57:03.318Z,9.5
2017-11-16T00:58:04.923Z,9.5
2017-11-16T00:59:06.533Z,9.4
2017-11-16T01:00:08.138Z,9.6
2017-11-16T01:01:09.738Z,9.5
2017-11-16T01:02:11.345Z,9.4
2017-11-16T01:03:12.967Z,9.5
2017-11-16T01:04:14.567Z,9.4
2017-11-16T01:05:16.167Z,9.4
2017-11-16T01:06:17.773Z,9.3
2017-11-16T01:07:19.386Z,9.3
2017-11-16T01:08:20.992Z,9.4
2017-11-16T01:09:22.597Z,9.4
2017-11-16T01:10:24.210Z,9.3
2017-11-16T01:11:25.815Z,9.3
2017-11-16T01:12:27.423Z,9.3
2017-11-16T01:13:29.028Z,9.3
2017-11-16T01:14:30.633Z,9.3
2017-11-16T01:15:32.243Z,9.3
2017-11-16T01:16:33.845Z,9.2
2017-11-16T01:17:35.458Z,9.3
2017-11-16T01:18:37.061Z,9.3
2017-11-16T01:19:38.669Z,9.3
2017-11-16T01:20:40.275Z,9.2
2017-11-16T01:21:41.888Z,9.3
2017-11-16T01:22:43.493Z,9.2
2017-11-16T01:23:45.103Z,9.1
2017-11-16T01:24:46.709Z,9.1
2017-11-16T01:25:48.312Z,9.1
2017-11-16T01:26:49.921Z,9.1
2017-11-16T01:27:51.534Z,9.1
2017-11-16T01:28:53.136Z,9.1
2017-11-16T01:29:54.744Z,9.1
2017-11-16T01:30:56.359Z,9.1
2017-11-16T01:31:57.953Z,9.1
2017-11-16T01:32:59.566Z,9.1
2017-11-16T01:34:01.170Z,9.2
2017-11-16T01:35:02.778Z,9.2
2017-11-16T01:36:04.385Z,9.1
2017-11-16T01:37:05.995Z,9.1
2017-11-16T01:38:07.598Z,9.1
2017-11-16T01:39:09.200Z,9.1
2017-11-16T01:40:10.815Z,9.2
2017-11-16T01:41:12.416Z,9.1
2017-11-16T01:42:14.029Z,9.1
2017-11-16T01:43:15.631Z,9.1
2017-11-16T01:44:17.241Z,9.1
2017-11-16T01:45:18.850Z,9.2
2017-11-16T01:46:20.452Z,9.1
2017-11-16T01:47:22.066Z,9.1
2017-11-16T01:48:23.670Z,9.1
2017-11-16T01:49:25.271Z,9.1
2017-11-16T01:50:26.880Z,9.1
2017-11-16T01:51:28.482Z,9.1
2017-11-16T01:52:30.093Z,9.1
2017-11-16T01:53:31.696Z,9.2
2017-11-16T01:54:33.310Z,9.2
2017-11-16T01:55:34.915Z,9.1
2017-11-16T01:56:36.521Z,9.2
2017-11-16T01:57:38.133Z,9.1
2017-11-16T01:58:39.737Z,9.2
2017-11-16T01:59:41.340Z,9.1
2017-11-16T02:00:42.952Z,9.1
2017-11-16T02:01:44.559Z,9.1
2017-11-16T02:02:46.174Z,9.0
2017-11-16T02:03:47.776Z,9.1
2017-11-16T02:04:49.378Z,9.1
2017-11-16T02:05:50.995Z,9.0
2017-11-16T02:06:52.596Z,9.0
2017-11-16T02:07:54.206Z,9.0
2017-11-16T02:08:55.806Z,9.0
2017-11-16T02:09:57.419Z,9.1
2017-11-16T02:10:59.021Z,9.0
2017-11-16T02:12:00.629Z,9.0
2017-11-16T02:13:02.245Z,9.1
2017-11-16T02:14:03.845Z,9.0
2017-11-16T02:15:05.450Z,9.0
2017-11-16T02:16:07.058Z,9.0
2017-11-16T02:17:08.663Z,9.0
2017-11-16T02:18:10.269Z,9.0
2017-11-16T02:19:11.874Z,9.0
2017-11-16T02:20:13.483Z,9.0
2017-11-16T02:21:15.112Z,9.0
2017-11-16T02:22:16.717Z,9.1
2017-11-16T02:23:18.326Z,9.0
2017-11-16T02:24:19.936Z,9.0
2017-11-16T02:25:21.546Z,9.0
2017-11-16T02:26:23.149Z,9.0
2017-11-16T02:27:24.753Z,9.0
2017-11-16T02:28:26.382Z,9.0
2017-11-16T02:29:30.707Z,9.0
2017-11-16T02:30:32.311Z,9.0
2017-11-16T02:31:33.925Z,9.1
2017-11-16T02:32:35.527Z,9.0
2017-11-16T02:33:37.138Z,9.0
2017-11-16T02:34:38.742Z,9.0
2017-11-16T02:35:40.354Z,9.0
2017-11-16T02:36:41.958Z,9.0
2017-11-16T02:37:43.573Z,9.0
2017-11-16T02:38:45.186Z,9.0
2017-11-16T02:39:46.783Z,9.0
2017-11-16T02:40:48.386Z,9.0
2017-11-16T02:41:49.994Z,9.0
2017-11-16T02:42:51.603Z,9.0
2017-11-16T02:43:53.206Z,9.0
2017-11-16T02:44:54.819Z,9.0
2017-11-16T02:45:56.429Z,9.0
2017-11-16T02:46:58.032Z,9.0
2017-11-16T02:47:59.633Z,9.0
2017-11-16T02:49:01.240Z,9.1
2017-11-16T02:50:02.852Z,9.1
2017-11-16T02:51:04.460Z,9.0
2017-11-16T02:52:06.064Z,9.0
2017-11-16T02:53:07.672Z,9.0
2017-11-16T02:54:09.284Z,9.0
2017-11-16T02:55:10.890Z,9.0
2017-11-16T02:56:12.499Z,9.0
2017-11-16T02:57:14.109Z,9.0
2017-11-16T02:58:15.711Z,9.1
2017-11-16T02:59:17.328Z,9.1
2017-11-16T03:00:18.929Z,9.0
2017-11-16T03:01:20.579Z,9.1
2017-11-16T03:02:22.144Z,9.0
2017-11-16T03:03:23.752Z,9.2
2017-11-16T03:04:25.355Z,9.2
2017-11-16T03:05:26.964Z,9.1
2017-11-16T03:06:28.566Z,9.2
2017-11-16T03:07:30.175Z,9.2
2017-11-16T03:08:31.781Z,9.1
2017-11-16T03:09:33.389Z,9.2
2017-11-16T03:10:34.991Z,9.1
2017-11-16T03:11:36.594Z,9.2
2017-11-16T03:12:38.202Z,9.1
2017-11-16T03:13:39.814Z,9.2
2017-11-16T03:14:41.419Z,9.2
2017-11-16T03:15:43.025Z,9.1
2017-11-16T03:16:44.635Z,9.2
2017-11-16T03:17:46.238Z,9.1
2017-11-16T03:18:47.867Z,9.2
2017-11-16T03:19:49.457Z,9.1
2017-11-16T03:20:51.062Z,9.2
2017-11-16T03:21:52.667Z,9.2
2017-11-16T03:22:54.276Z,9.1
2017-11-16T03:23:55.884Z,9.3
2017-11-16T03:24:57.488Z,9.1
2017-11-16T03:25:59.093Z,9.2
2017-11-16T03:27:00.706Z,9.1
2017-11-16T03:28:02.315Z,9.1
2017-11-16T03:29:03.924Z,9.2
2017-11-16T03:30:05.528Z,9.1
2017-11-16T03:31:07.150Z,9.1
2017-11-16T03:32:08.756Z,9.1
2017-11-16T03:33:10.360Z,9.1
2017-11-16T03:34:11.968Z,9.1
2017-11-16T03:35:13.583Z,9.1
2017-11-16T03:36:15.186Z,9.1
2017-11-16T03:37:16.792Z,9.1
2017-11-16T03:38:18.399Z,9.1
2017-11-16T03:39:20.008Z,9.1
2017-11-16T03:40:21.650Z,9.1
2017-11-16T03:41:23.220Z,9.2
2017-11-16T03:42:24.840Z,9.3
2017-11-16T03:43:26.459Z,9.1
2017-11-16T03:44:28.059Z,9.2
2017-11-16T03:45:29.670Z,9.3
2017-11-16T03:46:31.278Z,9.1
2017-11-16T03:47:32.886Z,9.3
2017-11-16T03:48:34.486Z,9.2
2017-11-16T03:49:36.101Z,9.2
2017-11-16T03:50:37.702Z,9.1
2017-11-16T03:51:40.132Z,9.1
2017-11-16T03:52:41.775Z,9.1
2017-11-16T03:53:43.375Z,9.0
2017-11-16T03:54:45.014Z,9.1
2017-11-16T03:55:46.619Z,9.1
2017-11-16T03:56:48.231Z,9.2
2017-11-16T03:57:49.844Z,9.3
2017-11-16T03:58:51.486Z,9.3
2017-11-16T03:59:53.251Z,9.3
2017-11-16T04:00:54.868Z,9.3
2017-11-16T04:01:56.493Z,9.2
2017-11-16T04:02:58.113Z,9.2
2017-11-16T04:03:59.727Z,9.0
2017-11-16T04:05:01.338Z,9.1
2017-11-16T04:06:02.933Z,9.1
2017-11-16T04:07:04.545Z,9.1
2017-11-16T04:08:06.146Z,9.0
2017-11-16T04:09:07.775Z,9.0
2017-11-16T04:10:09.379Z,9.0
2017-11-16T04:11:11.053Z,9.0
2017-11-16T04:12:12.801Z,9.0
2017-11-16T04:13:14.406Z,9.0
2017-11-16T04:14:17.335Z,8.9
2017-11-16T04:15:20.351Z,9.0
2017-11-16T04:16:21.941Z,9.0
2017-11-16T04:17:23.996Z,9.0
2017-11-16T04:18:25.598Z,8.8
2017-11-16T04:19:27.206Z,9.0
2017-11-16T04:20:28.813Z,8.9
2017-11-16T04:21:30.420Z,9.0
2017-11-16T04:23:41.482Z,9.0
2017-11-16T04:24:43.092Z,8.9
2017-11-16T04:26:36.043Z,8.9
2017-11-16T04:27:37.652Z,9.0
2017-11-16T04:28:39.253Z,9.0
2017-11-16T04:29:40.862Z,8.9
2017-11-16T04:30:42.470Z,8.9
2017-11-16T04:31:44.071Z,8.9
2017-11-16T04:32:45.677Z,8.9
2017-11-16T04:33:47.286Z,8.8
2017-11-16T04:34:48.892Z,8.8
2017-11-16T04:35:50.493Z,8.7
2017-11-16T04:36:52.099Z,8.7
2017-11-16T04:37:53.716Z,8.7
2017-11-16T04:38:55.311Z,8.7
2017-11-16T04:39:56.924Z,8.7
2017-11-16T04:40:58.536Z,8.7
2017-11-16T04:42:00.133Z,8.6
2017-11-16T04:43:01.739Z,8.8
2017-11-16T04:44:03.351Z,8.7
2017-11-16T04:45:04.958Z,8.7
2017-11-16T04:46:06.560Z,8.7
2017-11-16T04:47:08.174Z,8.6
2017-11-16T04:48:09.775Z,8.6
2017-11-16T04:49:11.387Z,8.6
2017-11-16T04:50:12.990Z,8.6
2017-11-16T04:51:14.598Z,8.6
2017-11-16T04:52:16.203Z,8.7
2017-11-16T04:53:17.840Z,8.6
2017-11-16T04:54:19.441Z,8.6
2017-11-16T04:55:21.053Z,8.6
2017-11-16T04:56:22.655Z,8.8
2017-11-16T04:57:24.403Z,8.7
2017-11-16T04:58:26.010Z,8.6
2017-11-16T04:59:27.621Z,8.5
2017-11-16T05:00:30.681Z,8.7
2017-11-16T05:01:32.265Z,8.6
2017-11-16T05:02:33.875Z,8.6
2017-11-16T05:03:35.484Z,8.6
2017-11-16T05:04:37.760Z,8.6
2017-11-16T05:05:40.658Z,8.6
2017-11-16T05:06:44.035Z,8.6
2017-11-16T05:07:45.603Z,8.5
2017-11-16T05:08:47.207Z,8.5
2017-11-16T05:09:48.820Z,8.5
2017-11-16T05:10:50.424Z,8.5
2017-11-16T05:11:52.036Z,8.5
2017-11-16T05:12:53.639Z,8.3
2017-11-16T05:13:55.255Z,8.4
2017-11-16T05:14:56.857Z,8.5
2017-11-16T05:15:58.468Z,8.5
2017-11-16T05:17:00.071Z,8.4
2017-11-16T05:18:01.679Z,8.4
2017-11-16T05:19:03.282Z,8.5
2017-11-16T05:20:04.885Z,8.5
2017-11-16T05:21:06.497Z,8.5
2017-11-16T05:22:08.101Z,8.4
2017-11-16T05:23:09.711Z,8.4
2017-11-16T05:24:11.325Z,8.5
2017-11-16T05:25:12.930Z,8.6
2017-11-16T05:26:14.534Z,8.5
2017-11-16T05:27:16.159Z,8.6
2017-11-16T05:28:17.765Z,8.6
2017-11-16T05:29:19.377Z,8.6
2017-11-16T05:30:20.981Z,8.5
2017-11-16T05:31:22.594Z,8.4
2017-11-16T05:32:24.198Z,8.4
2017-11-16T05:33:25.807Z,8.4
2017-11-16T05:34:27.407Z,8.4
2017-11-16T05:35:29.017Z,8.3
2017-11-16T05:36:30.618Z,8.3
2017-11-16T05:37:32.232Z,8.3
2017-11-16T05:38:33.837Z,8.3
2017-11-16T05:39:35.436Z,8.3
2017-11-16T05:40:37.117Z,8.3
2017-11-16T05:41:38.726Z,8.3
2017-11-16T05:42:40.335Z,8.3
2017-11-16T05:43:41.938Z,8.2
2017-11-16T05:44:43.545Z,8.3
2017-11-16T05:45:45.158Z,8.3
2017-11-16T05:46:46.765Z,8.2
2017-11-16T05:47:48.364Z,8.3
2017-11-16T05:48:49.972Z,8.3
2017-11-16T05:49:51.582Z,8.2
2017-11-16T05:50:53.190Z,8.2
2017-11-16T05:51:54.796Z,8.3
2017-11-16T05:52:56.406Z,8.2
2017-11-16T05:53:58.008Z,8.2
2017-11-16T05:54:59.612Z,8.2
2017-11-16T05:56:01.222Z,8.2
2017-11-16T05:57:02.832Z,8.2
2017-11-16T05:58:04.436Z,8.2
2017-11-16T05:59:06.044Z,8.2
2017-11-16T06:00:07.654Z,8.1
2017-11-16T06:01:09.262Z,8.2
2017-11-16T06:02:10.865Z,8.1
2017-11-16T06:03:12.467Z,8.2
2017-11-16T06:04:14.082Z,8.2
2017-11-16T06:05:15.722Z,8.1
2017-11-16T06:06:17.291Z,8.2
2017-11-16T06:07:18.898Z,8.1
2017-11-16T06:08:20.506Z,8.2
2017-11-16T06:09:22.112Z,8.1
2017-11-16T06:10:23.718Z,8.2
2017-11-16T06:11:25.325Z,8.1
2017-11-16T06:12:26.932Z,8.2
2017-11-16T06:13:28.541Z,8.0
2017-11-16T06:14:30.144Z,8.1
2017-11-16T06:15:31.748Z,8.1
2017-11-16T06:16:33.363Z,8.1
2017-11-16T06:17:34.960Z,8.1
2017-11-16T06:18:36.569Z,8.1
2017-11-16T06:19:38.172Z,8.2
2017-11-16T06:20:39.783Z,8.1
2017-11-16T06:21:41.387Z,8.1
2017-11-16T06:22:43.002Z,8.2
2017-11-16T06:23:44.598Z,8.1
2017-11-16T06:24:46.221Z,8.3
2017-11-16T06:25:47.831Z,8.2
2017-11-16T06:26:49.441Z,8.2
2017-11-16T06:27:51.044Z,8.2
2017-11-16T06:28:52.657Z,8.2
2017-11-16T06:29:54.261Z,8.2
2017-11-16T06:30:55.865Z,8.2
2017-11-16T06:31:57.468Z,8.2
2017-11-16T06:32:59.073Z,8.2
2017-11-16T06:34:00.684Z,8.2
2017-11-16T06:35:02.290Z,8.2
2017-11-16T06:36:03.903Z,8.2
2017-11-16T06:37:05.502Z,8.1
2017-11-16T06:38:07.112Z,8.2
2017-11-16T06:39:08.714Z,8.1
2017-11-16T06:40:10.355Z,8.1
2017-11-16T06:41:11.934Z,8.1
2017-11-16T06:42:13.544Z,8.1
2017-11-16T06:43:15.147Z,8.1
2017-11-16T06:44:16.758Z,8.1
2017-11-16T06:45:18.364Z,8.0
2017-11-16T06:46:19.970Z,8.0
2017-11-16T06:47:21.575Z,8.0
2017-11-16T06:48:23.181Z,8.0
2017-11-16T06:49:24.791Z,8.1
2017-11-16T06:50:26.398Z,8.1
2017-11-16T06:51:28.006Z,8.1
2017-11-16T06:52:29.616Z,8.1
2017-11-16T06:53:31.219Z,8.0
2017-11-16T06:54:32.826Z,8.1
2017-11-16T06:55:34.441Z,8.0
2017-11-16T06:56:36.051Z,8.1
2017-11-16T06:57:37.659Z,8.0
2017-11-16T06:58:39.263Z,8.1
2017-11-16T06:59:40.871Z,8.1
2017-11-16T07:00:42.476Z,8.0
2017-11-16T07:01:44.090Z,8.1
2017-11-16T07:02:45.697Z,8.0
2017-11-16T07:03:47.311Z,8.1
2017-11-16T07:04:48.916Z,8.1
2017-11-16T07:05:50.523Z,8.1
2017-11-16T07:06:52.137Z,8.1
2017-11-16T07:07:53.738Z,8.0
2017-11-16T07:08:55.344Z,8.0
2017-11-16T07:09:56.959Z,8.0
2017-11-16T07:10:58.572Z,8.0
2017-11-16T07:12:00.177Z,8.1
2017-11-16T07:13:01.785Z,8.1
2017-11-16T07:14:03.396Z,8.0
2017-11-16T07:15:05.009Z,8.1
2017-11-16T07:16:06.609Z,8.1
2017-11-16T07:17:08.219Z,8.1
2017-11-16T07:18:09.826Z,8.2
2017-11-16T07:19:11.436Z,8.1
2017-11-16T07:20:13.053Z,8.2
2017-11-16T07:21:14.661Z,8.1
2017-11-16T07:22:16.268Z,8.1
2017-11-16T07:23:17.877Z,8.0
2017-11-16T07:24:19.493Z,8.1
2017-11-16T07:25:21.103Z,8.1
2017-11-16T07:26:22.724Z,8.1
2017-11-16T07:27:24.320Z,8.2
2017-11-16T07:28:25.933Z,8.1
2017-11-16T07:29:27.542Z,8.2
2017-11-16T07:30:29.155Z,8.1
2017-11-16T07:31:30.769Z,8.1
2017-11-16T07:32:32.382Z,8.2
2017-11-16T07:33:33.996Z,8.2
2017-11-16T07:34:35.606Z,8.2
2017-11-16T07:35:37.218Z,8.1
2017-11-16T07:36:38.825Z,8.2
2017-11-16T07:37:40.437Z,8.2
2017-11-16T07:38:42.053Z,8.2
2017-11-16T07:39:43.671Z,8.2
2017-11-16T07:40:45.277Z,8.1
2017-11-16T07:41:46.892Z,8.2
2017-11-16T07:42:48.498Z,8.3
2017-11-16T07:43:50.112Z,8.2
2017-11-16T07:44:51.721Z,8.3
2017-11-16T07:45:53.343Z,8.3
2017-11-16T07:46:54.949Z,8.3
2017-11-16T07:47:56.563Z,8.3
2017-11-16T07:48:58.173Z,8.3
2017-11-16T07:49:59.789Z,8.3
2017-11-16T07:51:01.395Z,8.3
2017-11-16T07:52:03.007Z,8.4
2017-11-16T07:53:04.622Z,8.4
2017-11-16T07:54:06.236Z,8.3
2017-11-16T07:55:07.855Z,8.4
2017-11-16T07:56:10.398Z,8.5
2017-11-16T07:57:12.012Z,8.3
2017-11-16T07:58:13.626Z,8.5
2017-11-16T07:59:15.232Z,8.5
2017-11-16T08:00:16.842Z,8.6
2017-11-16T08:01:18.463Z,8.5
2017-11-16T08:02:20.085Z,8.5
2017-11-16T08:03:21.686Z,8.5
2017-11-16T08:04:23.304Z,8.5
2017-11-16T08:05:24.919Z,8.6
2017-11-16T08:06:26.525Z,8.7
2017-11-16T08:07:28.144Z,8.7
2017-11-16T08:08:29.759Z,8.6
2017-11-16T08:09:31.368Z,8.6
2017-11-16T08:10:32.987Z,8.6
2017-11-16T08:11:34.590Z,8.5
2017-11-16T08:12:36.205Z,8.6
2017-11-16T08:13:37.814Z,8.5
2017-11-16T08:14:39.426Z,8.5
2017-11-16T08:15:41.047Z,8.4
2017-11-16T08:16:42.661Z,8.5
2017-11-16T08:17:44.271Z,8.6
2017-11-16T08:18:45.882Z,8.6
2017-11-16T08:19:47.496Z,8.5
2017-11-16T08:20:49.108Z,8.6
2017-11-16T08:21:50.723Z,8.6
2017-11-16T08:22:52.341Z,8.6
2017-11-16T08:23:53.946Z,8.6
2017-11-16T08:24:55.557Z,8.6
2017-11-16T08:25:57.173Z,8.6
2017-11-16T08:26:58.786Z,8.7
2017-11-16T08:28:00.392Z,8.6
2017-11-16T08:29:02.000Z,8.6
2017-11-16T08:30:03.616Z,8.7
2017-11-16T08:31:05.231Z,8.7
2017-11-16T08:32:06.836Z,8.7
2017-11-16T08:33:08.443Z,8.7
2017-11-16T08:34:10.057Z,8.7
2017-11-16T08:35:11.668Z,8.7
2017-11-16T08:36:13.279Z,8.7
2017-11-16T08:37:14.894Z,8.6
2017-11-16T08:38:16.502Z,8.6
2017-11-16T08:39:18.109Z,8.6
2017-11-16T08:40:19.719Z,8.6
2017-11-16T08:41:21.332Z,8.5
2017-11-16T08:42:22.941Z,8.5
2017-11-16T08:43:24.551Z,8.6
2017-11-16T08:44:26.163Z,8.5
2017-11-16T08:45:27.777Z,8.5
2017-11-16T08:46:29.383Z,8.6
2017-11-16T08:47:31.749Z,8.6
2017-11-16T08:48:33.358Z,8.6
2017-11-16T08:49:34.968Z,8.5
2017-11-16T08:50:36.579Z,8.6
2017-11-16T08:51:38.189Z,8.6
2017-11-16T08:52:39.804Z,8.5
2017-11-16T08:53:41.414Z,8.5
2017-11-16T08:54:43.018Z,8.5
2017-11-16T08:55:44.631Z,8.5
2017-11-16T08:56:46.240Z,8.4
2017-11-16T08:57:47.857Z,8.4
2017-11-16T08:58:49.465Z,8.3
2017-11-16T08:59:51.081Z,8.5
2017-11-16T09:00:52.688Z,8.4
2017-11-16T09:01:54.308Z,8.4
2017-11-16T09:02:55.911Z,8.4
2017-11-16T09:03:57.528Z,8.4
2017-11-16T09:04:59.142Z,8.4
2017-11-16T09:06:00.752Z,8.4
2017-11-16T09:07:02.376Z,8.5
2017-11-16T09:08:03.974Z,8.4
2017-11-16T09:09:05.581Z,8.5
2017-11-16T09:10:07.195Z,8.5
2017-11-16T09:11:08.809Z,8.5
2017-11-16T09:12:10.421Z,8.5
2017-11-16T09:13:12.040Z,8.6
2017-11-16T09:14:13.650Z,8.6
2017-11-16T09:15:15.262Z,8.6
2017-11-16T09:16:16.873Z,8.6
2017-11-16T09:17:18.487Z,8.5
2017-11-16T09:18:20.093Z,8.6
2017-11-16T09:19:21.709Z,8.7
2017-11-16T09:20:23.321Z,8.7
2017-11-16T09:21:24.941Z,8.6
2017-11-16T09:22:26.546Z,8.7
2017-11-16T09:23:28.162Z,8.8
2017-11-16T09:24:29.773Z,8.7
2017-11-16T09:25:31.389Z,8.8
2017-11-16T09:26:33.010Z,8.9
2017-11-16T09:27:34.617Z,8.8
2017-11-16T09:28:36.227Z,8.9
2017-11-16T09:29:37.842Z,9.0
2017-11-16T09:30:39.459Z,8.8
2017-11-16T09:31:41.065Z,8.9
2017-11-16T09:32:42.676Z,8.9
2017-11-16T09:33:44.296Z,9.0
2017-11-16T09:34:45.907Z,9.1
2017-11-16T09:35:47.523Z,9.1
2017-11-16T09:36:49.135Z,9.1
2017-11-16T09:37:50.747Z,9.0
2017-11-16T09:38:52.357Z,9.0
2017-11-16T09:39:53.975Z,9.0
2017-11-16T09:40:55.596Z,9.0
2017-11-16T09:41:57.213Z,9.0
2017-11-16T09:42:58.817Z,9.1
2017-11-16T09:44:00.457Z,9.2
2017-11-16T09:45:02.041Z,9.2
2017-11-16T09:46:03.649Z,9.3
2017-11-16T09:47:05.267Z,9.2
2017-11-16T09:48:06.878Z,9.2
2017-11-16T09:49:08.507Z,9.2
2017-11-16T09:50:10.107Z,9.1
2017-11-16T09:51:11.723Z,9.0
2017-11-16T09:52:13.330Z,9.1
2017-11-16T09:53:14.945Z,9.1
2017-11-16T09:54:16.560Z,9.1
2017-11-16T09:55:18.176Z,9.2
2017-11-16T09:56:19.786Z,9.3
2017-11-16T09:57:21.397Z,9.3
2017-11-16T09:58:23.012Z,9.5
2017-11-16T09:59:24.624Z,9.7
2017-11-16T10:00:26.241Z,9.7
2017-11-16T10:01:27.855Z,9.9
2017-11-16T10:02:29.469Z,9.8
2017-11-16T10:03:31.078Z,9.8
2017-11-16T10:04:32.696Z,9.7
2017-11-16T10:05:34.310Z,9.8
2017-11-16T10:06:35.931Z,9.7
2017-11-16T10:07:37.532Z,9.7
2017-11-16T10:08:39.142Z,9.8
2017-11-16T10:09:40.760Z,9.7
2017-11-16T10:10:42.372Z,9.9
2017-11-16T10:11:43.991Z,9.8
2017-11-16T10:12:45.598Z,9.7
2017-11-16T10:13:47.218Z,9.8
2017-11-16T10:14:48.825Z,9.8
2017-11-16T10:15:50.446Z,9.9
2017-11-16T10:16:52.056Z,10.0
2017-11-16T10:17:53.669Z,10.0
2017-11-16T10:18:55.288Z,10.1
2017-11-16T10:19:56.903Z,10.2
2017-11-16T10:20:58.513Z,9.9
2017-11-16T10:22:00.126Z,10.0
2017-11-16T10:23:01.742Z,10.1
2017-11-16T10:24:03.357Z,10.2
2017-11-16T10:25:04.977Z,10.3
2017-11-16T10:26:06.589Z,10.4
2017-11-16T10:27:08.207Z,10.5
2017-11-16T10:28:09.816Z,10.6
2017-11-16T10:29:11.434Z,10.6
2017-11-16T10:30:13.044Z,10.7
2017-11-16T10:31:14.664Z,10.7
2017-11-16T10:32:16.284Z,10.8
2017-11-16T10:33:17.895Z,10.9
2017-11-16T10:34:19.514Z,11.0
2017-11-16T10:35:21.131Z,11.0
2017-11-16T10:36:22.742Z,10.8
2017-11-16T10:37:24.355Z,10.9
2017-11-16T10:38:25.970Z,11.0
2017-11-16T10:39:27.591Z,11.4
2017-11-16T10:40:29.202Z,11.5
2017-11-16T10:41:30.827Z,11.6
2017-11-16T10:42:32.439Z,11.6
2017-11-16T10:43:34.050Z,11.6
2017-11-16T10:44:35.668Z,11.8
2017-11-16T10:45:37.286Z,11.6
2017-11-16T10:46:38.903Z,11.6
2017-11-16T10:47:40.520Z,11.6
2017-11-16T10:48:42.137Z,11.6
2017-11-16T10:49:43.749Z,11.5
2017-11-16T10:50:45.363Z,11.7
2017-11-16T10:51:46.978Z,11.6
2017-11-16T10:52:48.598Z,11.6
2017-11-16T10:53:50.211Z,11.5
2017-11-16T10:54:51.827Z,11.5
2017-11-16T10:55:53.445Z,11.4
2017-11-16T10:56:55.057Z,11.2
2017-11-16T10:57:56.669Z,11.3
2017-11-16T10:58:58.284Z,11.4
2017-11-16T10:59:59.903Z,11.3
2017-11-16T11:01:01.521Z,11.4
2017-11-16T11:02:03.135Z,11.4
2017-11-16T11:03:04.748Z,11.3
2017-11-16T11:04:06.365Z,11.3
2017-11-16T11:05:07.977Z,11.3
2017-11-16T11:06:09.590Z,11.0
2017-11-16T11:07:11.210Z,11.0
2017-11-16T11:08:12.822Z,10.8
2017-11-16T11:09:14.437Z,10.8
2017-11-16T11:10:16.054Z,10.7
2017-11-16T11:11:17.666Z,10.7
2017-11-16T11:12:19.279Z,10.6
2017-11-16T11:13:20.894Z,10.6
2017-11-16T11:14:22.513Z,10.6
2017-11-16T11:15:24.125Z,10.6
2017-11-16T11:16:25.749Z,10.7
2017-11-16T11:17:27.353Z,10.7
2017-11-16T11:18:28.972Z,10.7
2017-11-16T11:19:30.586Z,10.8
2017-11-16T11:20:32.203Z,10.8
2017-11-16T11:21:33.819Z,10.8
2017-11-16T11:22:35.442Z,10.8
2017-11-16T11:23:37.059Z,10.7
2017-11-16T11:24:38.669Z,10.8
2017-11-16T11:25:40.294Z,10.7
2017-11-16T11:26:41.899Z,10.7
2017-11-16T11:27:43.517Z,10.6
2017-11-16T11:28:45.136Z,10.6
2017-11-16T11:29:46.757Z,10.6
2017-11-16T11:30:48.370Z,10.6
2017-11-16T11:31:49.988Z,10.7
2017-11-16T11:32:51.596Z,10.8
2017-11-16T11:33:53.216Z,10.8
2017-11-16T11:34:54.827Z,10.8
2017-11-16T11:35:56.443Z,10.8
2017-11-16T11:36:58.057Z,10.8
2017-11-16T11:37:59.677Z,11.0
2017-11-16T11:39:01.293Z,11.0
2017-11-16T11:40:02.904Z,11.0
2017-11-16T11:41:04.518Z,11.1
2017-11-16T11:42:06.140Z,11.1
2017-11-16T11:43:07.752Z,11.1
2017-11-16T11:44:09.377Z,11.1
2017-11-16T11:45:10.983Z,11.1
2017-11-16T11:46:12.597Z,11.1
2017-11-16T11:47:14.214Z,11.1
2017-11-16T11:48:15.830Z,11.1
2017-11-16T11:49:17.442Z,11.1
2017-11-16T11:50:19.059Z,11.0
2017-11-16T11:51:20.676Z,11.0
2017-11-16T11:52:22.295Z,11.0
2017-11-16T11:53:23.906Z,11.1
2017-11-16T11:54:25.523Z,11.1
2017-11-16T11:55:27.135Z,11.1
2017-11-16T11:56:28.750Z,11.2
2017-11-16T11:57:30.368Z,11.0
2017-11-16T11:58:31.980Z,11.0
2017-11-16T11:59:33.604Z,10.9
2017-11-16T12:00:35.209Z,10.8
2017-11-16T12:01:36.825Z,10.7
2017-11-16T12:02:38.438Z,10.7
2017-11-16T12:03:40.051Z,10.8
2017-11-16T12:04:41.671Z,10.7
2017-11-16T12:05:43.292Z,10.7
2017-11-16T12:06:44.903Z,10.7
2017-11-16T12:07:46.516Z,10.8
2017-11-16T12:08:48.124Z,10.7
2017-11-16T12:09:49.743Z,10.7
2017-11-16T12:10:51.359Z,10.7
2017-11-16T12:11:52.972Z,10.8
2017-11-16T12:12:54.591Z,10.8
2017-11-16T12:13:56.204Z,10.9
2017-11-16T12:14:57.819Z,10.9
2017-11-16T12:15:59.427Z,10.9
2017-11-16T12:17:01.044Z,10.9
2017-11-16T12:18:02.659Z,10.9
2017-11-16T12:19:04.271Z,11.0
2017-11-16T12:20:05.892Z,11.0
2017-11-16T12:21:07.502Z,11.0
2017-11-16T12:22:09.121Z,11.0
2017-11-16T12:23:10.729Z,11.0
2017-11-16T12:24:12.345Z,11.1
2017-11-16T12:25:13.957Z,11.1
2017-11-16T12:26:15.577Z,11.2
2017-11-16T12:27:17.198Z,11.2
2017-11-16T12:28:18.811Z,11.3
2017-11-16T12:29:20.419Z,11.4
2017-11-16T12:30:22.040Z,11.4
2017-11-16T12:31:23.651Z,11.4
2017-11-16T12:32:25.263Z,11.4
2017-11-16T12:33:26.886Z,11.4
2017-11-16T12:34:28.503Z,11.4
2017-11-16T12:35:30.120Z,11.4
2017-11-16T12:36:31.730Z,11.4
2017-11-16T12:37:33.350Z,11.5
2017-11-16T12:38:34.959Z,11.6
2017-11-16T12:39:36.576Z,11.6
2017-11-16T12:40:38.191Z,11.6
2017-11-16T12:41:39.809Z,11.5
2017-11-16T12:42:41.425Z,11.5
2017-11-16T12:43:43.043Z,11.6
2017-11-16T12:44:44.653Z,11.7
2017-11-16T12:45:46.281Z,11.7
2017-11-16T12:46:47.888Z,11.6
2017-11-16T12:47:49.506Z,11.6
2017-11-16T12:48:51.116Z,11.6
2017-11-16T12:49:52.735Z,11.6
2017-11-16T12:50:54.342Z,11.6
2017-11-16T12:51:55.960Z,11.6
2017-11-16T12:52:57.578Z,11.6
2017-11-16T12:53:59.185Z,11.5
2017-11-16T12:55:00.805Z,11.6
2017-11-16T12:56:02.415Z,11.6
2017-11-16T12:57:04.035Z,11.6
2017-11-16T12:58:05.642Z,11.7
2017-11-16T12:59:07.262Z,11.5
2017-11-16T13:00:08.874Z,11.4
2017-11-16T13:01:10.491Z,11.5
2017-11-16T13:02:12.103Z,11.5
2017-11-16T13:03:13.725Z,11.6
2017-11-16T13:04:15.337Z,11.7
2017-11-16T13:05:16.953Z,11.7
2017-11-16T13:06:18.565Z,11.6
2017-11-16T13:07:20.181Z,11.7
2017-11-16T13:08:21.809Z,11.6
2017-11-16T13:09:23.420Z,11.7
2017-11-16T13:10:25.034Z,11.7
2017-11-16T13:11:26.664Z,11.6
2017-11-16T13:12:28.279Z,11.6
2017-11-16T13:13:29.892Z,11.6
2017-11-16T13:14:31.502Z,11.4
2017-11-16T13:15:33.119Z,11.4
2017-11-16T13:16:34.734Z,11.4
2017-11-16T13:17:36.353Z,11.4
2017-11-16T13:18:37.969Z,11.2
2017-11-16T13:19:39.577Z,11.3
2017-11-16T13:20:41.191Z,11.3
2017-11-16T13:21:42.808Z,11.3
2017-11-16T13:22:44.423Z,11.2
2017-11-16T13:23:46.034Z,11.3
2017-11-16T13:24:47.658Z,11.3
2017-11-16T13:25:49.268Z,11.3
2017-11-16T13:26:50.881Z,11.2
2017-11-16T13:27:52.496Z,11.0
2017-11-16T13:28:54.112Z,11.1
2017-11-16T13:29:55.724Z,11.1
2017-11-16T13:30:57.335Z,11.0
2017-11-16T13:31:58.952Z,11.0
2017-11-16T13:33:00.570Z,11.1
2017-11-16T13:34:02.178Z,11.0
2017-11-16T13:35:03.789Z,11.0
2017-11-16T13:36:05.407Z,10.9
2017-11-16T13:37:07.024Z,10.9
2017-11-16T13:38:08.638Z,10.9
2017-11-16T13:39:10.250Z,11.0
2017-11-16T13:40:11.874Z,10.9
2017-11-16T13:41:13.491Z,10.9
2017-11-16T13:42:15.102Z,10.8
2017-11-16T13:43:16.720Z,10.9
2017-11-16T13:44:18.331Z,10.9
2017-11-16T13:45:19.950Z,10.8
2017-11-16T13:46:21.568Z,10.8
2017-11-16T13:47:23.181Z,10.7
2017-11-16T13:48:24.787Z,10.7
2017-11-16T13:49:26.404Z,10.7
2017-11-16T13:50:28.016Z,10.7
2017-11-16T13:51:29.633Z,10.6
2017-11-16T13:52:31.238Z,10.6
2017-11-16T13:53:32.889Z,10.7
2017-11-16T13:54:34.464Z,10.6
2017-11-16T13:55:36.086Z,10.6
2017-11-16T13:56:37.684Z,10.6
2017-11-16T13:57:39.305Z,10.6
2017-11-16T13:58:40.911Z,10.5
2017-11-16T13:59:42.527Z,10.5
2017-11-16T14:00:44.139Z,10.5
2017-11-16T14:01:45.757Z,10.5
2017-11-16T14:02:47.366Z,10.5